sensor_id;sensor_type;location;lat;lon;timestamp;pressure;altitude;pressure_sealevel;temperature;humidity
77939;BME280;67136;47.546;21.630;2024-03-29T00:02:48;98796.63;;;14.00;72.13
77939;BME280;67136;47.546;21.630;2024-03-29T00:05:49;98823.78;;;14.07;71.16
77939;BME280;67136;47.546;21.630;2024-03-29T00:08:53;98831.88;;;13.91;72.78
77939;BME280;67136;47.546;21.630;2024-03-29T00:11:54;98863.88;;;13.80;74.27
77939;BME280;67136;47.546;21.630;2024-03-29T00:15:01;98892.22;;;13.70;75.81
77939;BME280;67136;47.546;21.630;2024-03-29T00:18:03;98899.94;;;13.20;82.43
77939;BME280;67136;47.546;21.630;2024-03-29T00:21:05;98899.44;;;13.02;84.40
77939;BME280;67136;47.546;21.630;2024-03-29T00:24:07;98909.53;;;12.82;86.88
77939;BME280;67136;47.546;21.630;2024-03-29T00:27:09;98912.09;;;12.68;88.28
77939;BME280;67136;47.546;21.630;2024-03-29T00:30:11;98928.72;;;12.52;90.68
77939;BME280;67136;47.546;21.630;2024-03-29T00:33:12;98911.31;;;12.28;94.09
77939;BME280;67136;47.546;21.630;2024-03-29T00:36:14;98898.94;;;12.14;96.03
77939;BME280;67136;47.546;21.630;2024-03-29T00:39:16;98918.31;;;11.97;98.72
77939;BME280;67136;47.546;21.630;2024-03-29T00:42:20;98888.06;;;11.87;99.83
77939;BME280;67136;47.546;21.630;2024-03-29T00:45:25;98876.81;;;11.62;100.00
77939;BME280;67136;47.546;21.630;2024-03-29T00:48:26;98865.87;;;11.43;100.00
77939;BME280;67136;47.546;21.630;2024-03-29T00:51:28;98878.00;;;11.27;100.00
77939;BME280;67136;47.546;21.630;2024-03-29T00:54:31;98911.87;;;11.13;100.00
77939;BME280;67136;47.546;21.630;2024-03-29T00:57:32;98918.34;;;10.69;100.00
77939;BME280;67136;47.546;21.630;2024-03-29T01:00:34;98937.91;;;10.49;100.00
77939;BME280;67136;47.546;21.630;2024-03-29T01:03:35;98950.97;;;10.41;100.00
77939;BME280;67136;47.546;21.630;2024-03-29T01:06:38;98960.06;;;10.03;100.00
77939;BME280;67136;47.546;21.630;2024-03-29T01:09:40;98950.94;;;9.73;100.00
77939;BME280;67136;47.546;21.630;2024-03-29T01:12:42;98956.66;;;9.51;100.00
77939;BME280;67136;47.546;21.630;2024-03-29T01:15:47;98991.41;;;9.34;100.00
77939;BME280;67136;47.546;21.630;2024-03-29T01:18:52;99026.88;;;9.10;100.00
77939;BME280;67136;47.546;21.630;2024-03-29T01:21:54;99020.31;;;8.88;100.00
77939;BME280;67136;47.546;21.630;2024-03-29T01:24:55;99024.53;;;8.71;100.00
77939;BME280;67136;47.546;21.630;2024-03-29T01:27:57;99033.09;;;8.54;100.00
77939;BME280;67136;47.546;21.630;2024-03-29T01:31:02;99029.88;;;8.43;100.00
77939;BME280;67136;47.546;21.630;2024-03-29T01:34:04;99059.28;;;8.26;100.00
77939;BME280;67136;47.546;21.630;2024-03-29T01:37:07;99072.16;;;8.18;100.00
77939;BME280;67136;47.546;21.630;2024-03-29T01:40:09;99085.03;;;8.10;100.00
77939;BME280;67136;47.546;21.630;2024-03-29T01:43:12;99105.88;;;8.00;100.00
77939;BME280;67136;47.546;21.630;2024-03-29T01:46:13;99126.44;;;7.94;100.00
77939;BME280;67136;47.546;21.630;2024-03-29T01:49:16;99115.63;;;7.79;100.00
77939;BME280;67136;47.546;21.630;2024-03-29T01:52:18;99145.47;;;7.66;100.00
77939;BME280;67136;47.546;21.630;2024-03-29T01:55:21;99181.75;;;7.57;100.00
77939;BME280;67136;47.546;21.630;2024-03-29T01:58:22;99187.19;;;7.54;100.00
77939;BME280;67136;47.546;21.630;2024-03-29T02:01:26;99206.94;;;7.57;100.00
77939;BME280;67136;47.546;21.630;2024-03-29T02:04:28;99236.47;;;7.56;100.00
77939;BME280;67136;47.546;21.630;2024-03-29T02:07:30;99216.37;;;7.48;100.00
77939;BME280;67136;47.546;21.630;2024-03-29T02:10:32;99242.91;;;7.42;100.00
77939;BME280;67136;47.546;21.630;2024-03-29T02:13:34;99280.09;;;7.33;100.00
77939;BME280;67136;47.546;21.630;2024-03-29T02:16:36;99268.16;;;7.31;100.00
77939;BME280;67136;47.546;21.630;2024-03-29T02:19:39;99272.75;;;7.18;100.00
77939;BME280;67136;47.546;21.630;2024-03-29T02:22:50;99277.13;;;7.17;100.00
77939;BME280;67136;47.546;21.630;2024-03-29T02:25:57;99292.37;;;7.01;100.00
77939;BME280;67136;47.546;21.630;2024-03-29T02:29:02;99286.03;;;6.94;100.00
77939;BME280;67136;47.546;21.630;2024-03-29T02:32:04;99300.41;;;6.89;100.00
77939;BME280;67136;47.546;21.630;2024-03-29T02:35:06;99295.28;;;6.87;100.00
77939;BME280;67136;47.546;21.630;2024-03-29T02:38:10;99307.19;;;6.80;100.00
77939;BME280;67136;47.546;21.630;2024-03-29T02:41:12;99310.22;;;6.85;100.00
77939;BME280;67136;47.546;21.630;2024-03-29T02:44:14;99315.97;;;6.68;100.00
77939;BME280;67136;47.546;21.630;2024-03-29T02:47:17;99315.19;;;6.77;100.00
77939;BME280;67136;47.546;21.630;2024-03-29T02:50:18;99333.19;;;6.69;100.00
77939;BME280;67136;47.546;21.630;2024-03-29T02:53:20;99322.53;;;6.72;100.00
77939;BME280;67136;47.546;21.630;2024-03-29T02:56:24;99333.97;;;6.60;100.00
77939;BME280;67136;47.546;21.630;2024-03-29T02:59:28;99341.53;;;6.52;100.00
77939;BME280;67136;47.546;21.630;2024-03-29T03:02:30;99341.34;;;6.44;100.00
77939;BME280;67136;47.546;21.630;2024-03-29T03:05:31;99355.28;;;6.32;100.00
77939;BME280;67136;47.546;21.630;2024-03-29T03:08:33;99357.75;;;6.33;100.00
77939;BME280;67136;47.546;21.630;2024-03-29T03:11:54;99382.16;;;6.42;100.00
77939;BME280;67136;47.546;21.630;2024-03-29T03:14:58;99381.44;;;6.40;100.00
77939;BME280;67136;47.546;21.630;2024-03-29T03:18:00;99395.16;;;6.42;100.00
77939;BME280;67136;47.546;21.630;2024-03-29T03:21:02;99413.09;;;6.45;100.00
77939;BME280;67136;47.546;21.630;2024-03-29T03:24:06;99414.22;;;6.52;100.00
77939;BME280;67136;47.546;21.630;2024-03-29T03:27:08;99426.31;;;6.42;100.00
77939;BME280;67136;47.546;21.630;2024-03-29T03:30:13;99430.78;;;6.40;100.00
77939;BME280;67136;47.546;21.630;2024-03-29T03:33:17;99448.41;;;6.25;100.00
77939;BME280;67136;47.546;21.630;2024-03-29T03:36:19;99459.63;;;6.26;100.00
77939;BME280;67136;47.546;21.630;2024-03-29T03:39:21;99472.38;;;6.18;100.00
77939;BME280;67136;47.546;21.630;2024-03-29T03:42:23;99488.28;;;6.13;100.00
77939;BME280;67136;47.546;21.630;2024-03-29T03:45:25;99472.97;;;5.99;100.00
77939;BME280;67136;47.546;21.630;2024-03-29T03:48:26;99485.81;;;6.01;100.00
77939;BME280;67136;47.546;21.630;2024-03-29T03:51:28;99511.03;;;6.10;100.00
77939;BME280;67136;47.546;21.630;2024-03-29T03:54:29;99522.16;;;6.01;100.00
77939;BME280;67136;47.546;21.630;2024-03-29T03:57:31;99529.81;;;6.02;100.00
77939;BME280;67136;47.546;21.630;2024-03-29T04:00:35;99548.31;;;5.98;100.00
77939;BME280;67136;47.546;21.630;2024-03-29T04:03:37;99568.31;;;5.85;100.00
77939;BME280;67136;47.546;21.630;2024-03-29T04:06:38;99567.78;;;5.69;100.00
77939;BME280;67136;47.546;21.630;2024-03-29T04:09:40;99572.72;;;5.61;100.00
77939;BME280;67136;47.546;21.630;2024-03-29T04:12:42;99570.88;;;5.74;100.00
77939;BME280;67136;47.546;21.630;2024-03-29T04:15:43;99587.69;;;5.68;100.00
77939;BME280;67136;47.546;21.630;2024-03-29T04:18:45;99605.97;;;5.67;100.00
77939;BME280;67136;47.546;21.630;2024-03-29T04:21:46;99622.97;;;5.71;100.00
77939;BME280;67136;47.546;21.630;2024-03-29T04:24:48;99633.50;;;5.80;100.00
77939;BME280;67136;47.546;21.630;2024-03-29T04:27:50;99628.16;;;5.71;100.00
77939;BME280;67136;47.546;21.630;2024-03-29T04:30:59;99645.81;;;5.66;100.00
77939;BME280;67136;47.546;21.630;2024-03-29T04:34:01;99652.16;;;5.62;100.00
77939;BME280;67136;47.546;21.630;2024-03-29T04:37:03;99662.41;;;5.63;100.00
77939;BME280;67136;47.546;21.630;2024-03-29T04:40:05;99663.91;;;5.55;100.00
77939;BME280;67136;47.546;21.630;2024-03-29T04:43:07;99677.44;;;5.47;100.00
77939;BME280;67136;47.546;21.630;2024-03-29T04:46:11;99679.53;;;5.42;100.00
77939;BME280;67136;47.546;21.630;2024-03-29T04:49:13;99692.31;;;5.56;100.00
77939;BME280;67136;47.546;21.630;2024-03-29T04:52:14;99696.19;;;5.74;100.00
77939;BME280;67136;47.546;21.630;2024-03-29T04:55:16;99699.81;;;5.84;100.00
77939;BME280;67136;47.546;21.630;2024-03-29T04:58:17;99705.03;;;5.95;100.00
77939;BME280;67136;47.546;21.630;2024-03-29T05:01:19;99727.00;;;6.02;100.00
77939;BME280;67136;47.546;21.630;2024-03-29T05:04:23;99734.78;;;6.02;100.00
77939;BME280;67136;47.546;21.630;2024-03-29T05:07:30;99748.16;;;6.09;100.00
77939;BME280;67136;47.546;21.630;2024-03-29T05:10:32;99758.31;;;6.12;100.00
77939;BME280;67136;47.546;21.630;2024-03-29T05:13:33;99765.81;;;6.27;100.00
77939;BME280;67136;47.546;21.630;2024-03-29T05:16:36;99767.50;;;6.40;100.00
77939;BME280;67136;47.546;21.630;2024-03-29T05:19:37;99770.97;;;6.51;100.00
77939;BME280;67136;47.546;21.630;2024-03-29T05:22:39;99787.50;;;6.61;100.00
77939;BME280;67136;47.546;21.630;2024-03-29T05:25:40;99805.72;;;6.72;100.00
77939;BME280;67136;47.546;21.630;2024-03-29T05:28:45;99826.28;;;6.75;100.00
77939;BME280;67136;47.546;21.630;2024-03-29T05:31:47;99828.25;;;6.95;100.00
77939;BME280;67136;47.546;21.630;2024-03-29T05:34:49;99830.38;;;7.12;100.00
77939;BME280;67136;47.546;21.630;2024-03-29T05:37:51;99832.75;;;7.26;100.00
77939;BME280;67136;47.546;21.630;2024-03-29T05:40:54;99834.91;;;7.43;100.00
77939;BME280;67136;47.546;21.630;2024-03-29T05:43:56;99843.66;;;7.53;100.00
77939;BME280;67136;47.546;21.630;2024-03-29T05:46:58;99824.72;;;7.51;100.00
77939;BME280;67136;47.546;21.630;2024-03-29T05:49:59;99835.59;;;7.56;100.00
77939;BME280;67136;47.546;21.630;2024-03-29T05:53:01;99839.28;;;7.65;100.00
77939;BME280;67136;47.546;21.630;2024-03-29T05:56:02;99851.09;;;7.69;100.00
77939;BME280;67136;47.546;21.630;2024-03-29T05:59:04;99862.31;;;7.92;99.51
77939;BME280;67136;47.546;21.630;2024-03-29T06:02:12;99876.88;;;7.94;99.31
77939;BME280;67136;47.546;21.630;2024-03-29T06:05:14;99878.63;;;8.05;98.85
77939;BME280;67136;47.546;21.630;2024-03-29T06:08:16;99888.91;;;8.28;97.57
77939;BME280;67136;47.546;21.630;2024-03-29T06:11:17;99887.59;;;8.23;96.86
77939;BME280;67136;47.546;21.630;2024-03-29T06:14:19;99889.75;;;8.40;96.96
77939;BME280;67136;47.546;21.630;2024-03-29T06:17:39;99882.06;;;8.70;95.19
77939;BME280;67136;47.546;21.630;2024-03-29T06:20:41;99876.78;;;8.81;93.34
77939;BME280;67136;47.546;21.630;2024-03-29T06:23:42;99888.97;;;9.12;91.60
77939;BME280;67136;47.546;21.630;2024-03-29T06:26:44;99897.78;;;9.21;89.70
77939;BME280;67136;47.546;21.630;2024-03-29T06:29:48;99906.47;;;9.51;88.22
77939;BME280;67136;47.546;21.630;2024-03-29T06:32:49;99902.22;;;9.50;86.68
77939;BME280;67136;47.546;21.630;2024-03-29T06:35:54;99898.47;;;10.03;84.89
77939;BME280;67136;47.546;21.630;2024-03-29T06:38:56;99907.16;;;9.74;84.57
77939;BME280;67136;47.546;21.630;2024-03-29T06:41:58;99905.22;;;10.36;82.74
77939;BME280;67136;47.546;21.630;2024-03-29T06:45:00;99904.94;;;10.49;80.89
77939;BME280;67136;47.546;21.630;2024-03-29T06:48:03;99902.75;;;10.54;80.35
77939;BME280;67136;47.546;21.630;2024-03-29T06:51:05;99910.47;;;10.84;78.29
77939;BME280;67136;47.546;21.630;2024-03-29T06:54:07;99914.59;;;10.96;77.88
77939;BME280;67136;47.546;21.630;2024-03-29T06:57:11;99909.66;;;11.12;76.14
77939;BME280;67136;47.546;21.630;2024-03-29T07:00:16;99910.13;;;11.44;74.62
77939;BME280;67136;47.546;21.630;2024-03-29T07:03:18;99916.06;;;11.46;73.71
77939;BME280;67136;47.546;21.630;2024-03-29T07:06:20;99926.47;;;11.84;72.05
77939;BME280;67136;47.546;21.630;2024-03-29T07:09:22;99943.62;;;11.69;72.04
77939;BME280;67136;47.546;21.630;2024-03-29T07:12:24;99945.34;;;11.88;72.00
77939;BME280;67136;47.546;21.630;2024-03-29T07:15:26;99948.47;;;12.55;70.21
77939;BME280;67136;47.546;21.630;2024-03-29T07:18:28;99949.41;;;12.36;68.17
77939;BME280;67136;47.546;21.630;2024-03-29T07:21:29;99955.06;;;13.04;66.15
77939;BME280;67136;47.546;21.630;2024-03-29T07:24:31;99948.41;;;13.27;64.67
77939;BME280;67136;47.546;21.630;2024-03-29T07:27:33;99947.09;;;13.48;64.85
77939;BME280;67136;47.546;21.630;2024-03-29T07:30:38;99951.66;;;12.94;64.36
77939;BME280;67136;47.546;21.630;2024-03-29T07:33:39;99948.91;;;13.13;63.95
77939;BME280;67136;47.546;21.630;2024-03-29T07:36:41;99961.97;;;13.22;62.74
77939;BME280;67136;47.546;21.630;2024-03-29T07:39:42;99962.47;;;13.26;63.05
77939;BME280;67136;47.546;21.630;2024-03-29T07:42:44;99966.94;;;13.51;62.69
77939;BME280;67136;47.546;21.630;2024-03-29T07:45:46;99974.59;;;13.62;62.41
77939;BME280;67136;47.546;21.630;2024-03-29T07:48:49;99966.00;;;13.78;61.64
77939;BME280;67136;47.546;21.630;2024-03-29T07:51:50;99972.91;;;14.04;61.39
77939;BME280;67136;47.546;21.630;2024-03-29T07:54:52;99972.03;;;13.96;61.65
77939;BME280;67136;47.546;21.630;2024-03-29T07:57:53;99974.47;;;13.89;60.29
77939;BME280;67136;47.546;21.630;2024-03-29T08:00:55;99976.88;;;14.91;56.34
77939;BME280;67136;47.546;21.630;2024-03-29T08:03:57;99957.69;;;14.57;57.22
77939;BME280;67136;47.546;21.630;2024-03-29T08:06:59;99970.37;;;15.44;54.55
77939;BME280;67136;47.546;21.630;2024-03-29T08:10:02;99970.28;;;16.00;53.46
77939;BME280;67136;47.546;21.630;2024-03-29T08:13:03;99972.75;;;16.56;50.70
77939;BME280;67136;47.546;21.630;2024-03-29T08:16:05;99973.00;;;16.31;51.57
77939;BME280;67136;47.546;21.630;2024-03-29T08:19:07;99976.06;;;16.50;50.14
77939;BME280;67136;47.546;21.630;2024-03-29T08:22:09;99983.78;;;17.81;48.51
77939;BME280;67136;47.546;21.630;2024-03-29T08:25:13;99974.75;;;17.07;47.74
77939;BME280;67136;47.546;21.630;2024-03-29T08:28:15;99979.16;;;17.37;46.61
77939;BME280;67136;47.546;21.630;2024-03-29T08:31:17;99977.97;;;17.17;47.50
77939;BME280;67136;47.546;21.630;2024-03-29T08:34:19;99985.69;;;17.87;44.32
77939;BME280;67136;47.546;21.630;2024-03-29T08:37:20;99987.09;;;19.27;42.63
77939;BME280;67136;47.546;21.630;2024-03-29T08:40:23;99988.59;;;18.79;43.18
77939;BME280;67136;47.546;21.630;2024-03-29T08:43:25;99994.41;;;18.89;42.95
77939;BME280;67136;47.546;21.630;2024-03-29T08:46:28;100000.28;;;18.85;41.74
77939;BME280;67136;47.546;21.630;2024-03-29T08:49:30;100004.47;;;20.74;38.54
77939;BME280;67136;47.546;21.630;2024-03-29T08:52:31;100009.47;;;20.15;39.48
77939;BME280;67136;47.546;21.630;2024-03-29T08:55:34;100010.47;;;19.38;40.52
77939;BME280;67136;47.546;21.630;2024-03-29T08:58:35;100017.59;;;18.51;40.43
77939;BME280;67136;47.546;21.630;2024-03-29T09:01:41;100009.84;;;19.21;39.48
77939;BME280;67136;47.546;21.630;2024-03-29T09:04:42;100013.09;;;19.02;39.26
77939;BME280;67136;47.546;21.630;2024-03-29T09:07:44;100034.63;;;20.53;36.61
77939;BME280;67136;47.546;21.630;2024-03-29T09:10:47;100038.84;;;20.14;37.17
77939;BME280;67136;47.546;21.630;2024-03-29T09:13:49;100022.72;;;19.03;37.53
77939;BME280;67136;47.546;21.630;2024-03-29T09:16:51;100024.63;;;17.93;40.31
77939;BME280;67136;47.546;21.630;2024-03-29T09:19:52;100022.84;;;18.81;39.88
77939;BME280;67136;47.546;21.630;2024-03-29T09:22:54;100022.91;;;19.58;37.74
77939;BME280;67136;47.546;21.630;2024-03-29T09:25:56;100014.09;;;21.48;33.83
77939;BME280;67136;47.546;21.630;2024-03-29T09:28:58;100023.47;;;21.25;33.27
77939;BME280;67136;47.546;21.630;2024-03-29T09:32:02;100024.38;;;20.44;35.41
77939;BME280;67136;47.546;21.630;2024-03-29T09:35:04;100022.72;;;21.76;33.62
77939;BME280;67136;47.546;21.630;2024-03-29T09:38:06;100019.97;;;21.11;34.02
77939;BME280;67136;47.546;21.630;2024-03-29T09:41:14;100019.44;;;20.41;34.94
77939;BME280;67136;47.546;21.630;2024-03-29T09:44:16;100028.66;;;19.90;35.68
77939;BME280;67136;47.546;21.630;2024-03-29T09:47:23;100011.88;;;22.10;32.85
77939;BME280;67136;47.546;21.630;2024-03-29T09:50:26;100003.88;;;21.71;32.08
77939;BME280;67136;47.546;21.630;2024-03-29T09:53:28;100015.03;;;20.54;34.13
77939;BME280;67136;47.546;21.630;2024-03-29T09:56:32;100006.44;;;21.00;32.61
77939;BME280;67136;47.546;21.630;2024-03-29T09:59:34;100010.81;;;21.46;32.07
77939;BME280;67136;47.546;21.630;2024-03-29T10:02:39;99999.75;;;21.43;30.83
77939;BME280;67136;47.546;21.630;2024-03-29T10:05:42;99999.16;;;23.20;29.12
77939;BME280;67136;47.546;21.630;2024-03-29T10:08:43;99993.13;;;22.43;29.44
77939;BME280;67136;47.546;21.630;2024-03-29T10:11:45;99993.84;;;22.83;29.16
77939;BME280;67136;47.546;21.630;2024-03-29T10:14:49;99978.97;;;20.86;30.90
77939;BME280;67136;47.546;21.630;2024-03-29T10:17:51;99985.09;;;22.63;29.58
77939;BME280;67136;47.546;21.630;2024-03-29T10:21:00;99980.94;;;21.70;30.59
77939;BME280;67136;47.546;21.630;2024-03-29T10:24:13;99985.13;;;23.87;26.67
77939;BME280;67136;47.546;21.630;2024-03-29T10:27:15;99983.16;;;22.83;26.28
77939;BME280;67136;47.546;21.630;2024-03-29T10:30:17;99971.81;;;22.43;27.55
77939;BME280;67136;47.546;21.630;2024-03-29T10:33:22;99964.81;;;20.72;28.62
77939;BME280;67136;47.546;21.630;2024-03-29T10:36:25;99955.75;;;21.21;26.86
77939;BME280;67136;47.546;21.630;2024-03-29T10:39:29;99962.09;;;23.06;25.75
77939;BME280;67136;47.546;21.630;2024-03-29T10:42:31;99973.50;;;22.31;26.87
77939;BME280;67136;47.546;21.630;2024-03-29T10:45:34;99970.28;;;23.11;26.68
77939;BME280;67136;47.546;21.630;2024-03-29T10:48:36;99968.31;;;23.62;27.00
77939;BME280;67136;47.546;21.630;2024-03-29T10:51:39;99959.62;;;22.09;28.76
77939;BME280;67136;47.546;21.630;2024-03-29T10:54:41;99976.66;;;23.41;26.95
77939;BME280;67136;47.546;21.630;2024-03-29T10:57:47;99964.00;;;22.55;27.57
77939;BME280;67136;47.546;21.630;2024-03-29T11:00:57;99958.47;;;22.94;27.89
77939;BME280;67136;47.546;21.630;2024-03-29T11:04:07;99936.31;;;25.00;26.16
77939;BME280;67136;47.546;21.630;2024-03-29T11:07:19;99940.25;;;24.50;26.45
77939;BME280;67136;47.546;21.630;2024-03-29T11:10:30;99949.09;;;24.69;25.18
77939;BME280;67136;47.546;21.630;2024-03-29T11:13:49;99935.09;;;23.27;27.36
77939;BME280;67136;47.546;21.630;2024-03-29T11:16:56;99929.97;;;27.08;23.74
77939;BME280;67136;47.546;21.630;2024-03-29T11:20:03;99935.88;;;23.59;27.12
77939;BME280;67136;47.546;21.630;2024-03-29T11:23:15;99931.41;;;22.90;28.71
77939;BME280;67136;47.546;21.630;2024-03-29T11:26:18;99929.38;;;24.33;27.36
77939;BME280;67136;47.546;21.630;2024-03-29T11:29:21;99919.81;;;24.74;26.96
77939;BME280;67136;47.546;21.630;2024-03-29T11:32:37;99925.59;;;24.05;27.72
77939;BME280;67136;47.546;21.630;2024-03-29T11:35:42;99917.16;;;24.55;27.29
77939;BME280;67136;47.546;21.630;2024-03-29T11:38:48;99938.28;;;23.11;28.90
77939;BME280;67136;47.546;21.630;2024-03-29T11:41:53;99926.34;;;25.60;26.71
77939;BME280;67136;47.546;21.630;2024-03-29T11:44:55;99918.69;;;26.38;25.74
77939;BME280;67136;47.546;21.630;2024-03-29T11:48:01;99912.56;;;28.79;23.02
77939;BME280;67136;47.546;21.630;2024-03-29T11:51:11;99926.63;;;24.88;27.06
77939;BME280;67136;47.546;21.630;2024-03-29T11:54:13;99908.66;;;27.18;25.18
77939;BME280;67136;47.546;21.630;2024-03-29T11:57:15;99919.19;;;26.23;26.62
77939;BME280;67136;47.546;21.630;2024-03-29T12:00:17;99916.63;;;25.36;27.45
77939;BME280;67136;47.546;21.630;2024-03-29T12:03:21;99917.22;;;25.84;26.28
77939;BME280;67136;47.546;21.630;2024-03-29T12:06:23;99915.63;;;23.69;28.84
77939;BME280;67136;47.546;21.630;2024-03-29T12:09:25;99914.75;;;23.57;29.73
77939;BME280;67136;47.546;21.630;2024-03-29T12:12:26;99891.47;;;24.36;29.47
77939;BME280;67136;47.546;21.630;2024-03-29T12:15:28;99909.75;;;28.04;25.01
77939;BME280;67136;47.546;21.630;2024-03-29T12:18:30;99896.75;;;25.78;27.40
77939;BME280;67136;47.546;21.630;2024-03-29T12:21:35;99884.16;;;24.62;29.53
77939;BME280;67136;47.546;21.630;2024-03-29T12:24:37;99886.16;;;29.35;23.93
77939;BME280;67136;47.546;21.630;2024-03-29T12:27:39;99881.56;;;26.46;27.04
77939;BME280;67136;47.546;21.630;2024-03-29T12:30:42;99898.09;;;27.94;25.64
77939;BME280;67136;47.546;21.630;2024-03-29T12:33:51;99871.66;;;25.15;29.04
77939;BME280;67136;47.546;21.630;2024-03-29T12:36:54;99894.13;;;27.47;25.92
77939;BME280;67136;47.546;21.630;2024-03-29T12:39:56;99863.00;;;28.05;26.43
77939;BME280;67136;47.546;21.630;2024-03-29T12:43:03;99856.50;;;27.85;26.14
77939;BME280;67136;47.546;21.630;2024-03-29T12:46:06;99870.22;;;26.28;27.46
77939;BME280;67136;47.546;21.630;2024-03-29T12:49:11;99854.13;;;23.08;32.04
77939;BME280;67136;47.546;21.630;2024-03-29T12:52:14;99875.69;;;21.94;34.08
77939;BME280;67136;47.546;21.630;2024-03-29T12:55:16;99847.94;;;21.12;35.93
77939;BME280;67136;47.546;21.630;2024-03-29T12:58:20;99834.50;;;22.41;33.97
77939;BME280;67136;47.546;21.630;2024-03-29T13:01:23;99846.50;;;21.35;35.71
77939;BME280;67136;47.546;21.630;2024-03-29T13:04:25;99844.88;;;23.96;31.42
77939;BME280;67136;47.546;21.630;2024-03-29T13:07:27;99844.28;;;22.53;33.59
77939;BME280;67136;47.546;21.630;2024-03-29T13:10:29;99833.19;;;21.35;35.94
77939;BME280;67136;47.546;21.630;2024-03-29T13:13:31;99843.09;;;26.01;29.35
77939;BME280;67136;47.546;21.630;2024-03-29T13:16:32;99849.69;;;27.77;26.39
77939;BME280;67136;47.546;21.630;2024-03-29T13:19:34;99854.34;;;32.98;21.11
77939;BME280;67136;47.546;21.630;2024-03-29T13:22:37;99833.81;;;29.25;25.01
77939;BME280;67136;47.546;21.630;2024-03-29T13:25:38;99828.03;;;25.49;29.41
77939;BME280;67136;47.546;21.630;2024-03-29T13:28:40;99831.06;;;25.18;30.57
77939;BME280;67136;47.546;21.630;2024-03-29T13:31:42;99849.00;;;30.50;23.79
77939;BME280;67136;47.546;21.630;2024-03-29T13:34:44;99821.88;;;23.41;33.07
77939;BME280;67136;47.546;21.630;2024-03-29T13:37:45;99812.47;;;24.40;32.70
77939;BME280;67136;47.546;21.630;2024-03-29T13:40:50;99801.34;;;25.65;30.67
77939;BME280;67136;47.546;21.630;2024-03-29T13:43:52;99811.31;;;25.42;30.34
77939;BME280;67136;47.546;21.630;2024-03-29T13:46:54;99815.81;;;26.44;29.40
77939;BME280;67136;47.546;21.630;2024-03-29T13:49:55;99815.12;;;27.86;27.31
77939;BME280;67136;47.546;21.630;2024-03-29T13:52:58;99805.63;;;22.69;35.03
77939;BME280;67136;47.546;21.630;2024-03-29T13:55:59;99791.47;;;21.16;38.17
77939;BME280;67136;47.546;21.630;2024-03-29T13:59:04;99785.06;;;20.32;40.13
77939;BME280;67136;47.546;21.630;2024-03-29T14:02:06;99791.16;;;23.32;35.35
77939;BME280;67136;47.546;21.630;2024-03-29T14:05:10;99784.28;;;25.32;31.87
77939;BME280;67136;47.546;21.630;2024-03-29T14:08:13;99790.38;;;24.33;32.96
77939;BME280;67136;47.546;21.630;2024-03-29T14:11:15;99776.41;;;21.80;37.68
77939;BME280;67136;47.546;21.630;2024-03-29T14:14:19;99777.75;;;20.80;40.16
77939;BME280;67136;47.546;21.630;2024-03-29T14:17:24;99770.31;;;20.17;41.82
77939;BME280;67136;47.546;21.630;2024-03-29T14:20:26;99782.84;;;20.36;41.81
77939;BME280;67136;47.546;21.630;2024-03-29T14:23:27;99771.25;;;20.03;42.37
77939;BME280;67136;47.546;21.630;2024-03-29T14:26:29;99770.69;;;19.60;43.64
77939;BME280;67136;47.546;21.630;2024-03-29T14:29:34;99767.91;;;19.74;43.58
77939;BME280;67136;47.546;21.630;2024-03-29T14:32:39;99768.03;;;19.60;43.72
77939;BME280;67136;47.546;21.630;2024-03-29T14:35:41;99755.16;;;19.50;44.20
77939;BME280;67136;47.546;21.630;2024-03-29T14:38:44;99760.47;;;19.50;44.00
77939;BME280;67136;47.546;21.630;2024-03-29T14:41:49;99765.37;;;19.53;44.14
77939;BME280;67136;47.546;21.630;2024-03-29T14:44:53;99752.88;;;19.47;44.53
77939;BME280;67136;47.546;21.630;2024-03-29T14:47:55;99747.03;;;19.58;44.51
77939;BME280;67136;47.546;21.630;2024-03-29T14:50:56;99754.19;;;19.64;44.66
77939;BME280;67136;47.546;21.630;2024-03-29T14:54:00;99756.84;;;19.64;44.93
77939;BME280;67136;47.546;21.630;2024-03-29T14:57:04;99741.47;;;19.47;45.80
77939;BME280;67136;47.546;21.630;2024-03-29T15:00:06;99746.88;;;19.32;46.48
77939;BME280;67136;47.546;21.630;2024-03-29T15:03:09;99735.94;;;19.42;46.74
77939;BME280;67136;47.546;21.630;2024-03-29T15:06:12;99734.91;;;19.43;47.01
77939;BME280;67136;47.546;21.630;2024-03-29T15:09:14;99732.22;;;19.36;47.33
77939;BME280;67136;47.546;21.630;2024-03-29T15:12:15;99729.19;;;19.39;47.83
77939;BME280;67136;47.546;21.630;2024-03-29T15:15:17;99709.75;;;19.32;48.44
77939;BME280;67136;47.546;21.630;2024-03-29T15:18:20;99732.56;;;19.27;48.98
77939;BME280;67136;47.546;21.630;2024-03-29T15:21:21;99721.13;;;19.26;48.97
77939;BME280;67136;47.546;21.630;2024-03-29T15:24:23;99724.53;;;19.20;49.33
77939;BME280;67136;47.546;21.630;2024-03-29T15:27:24;99722.31;;;19.24;49.16
77939;BME280;67136;47.546;21.630;2024-03-29T15:30:49;99717.03;;;19.24;49.27
77939;BME280;67136;47.546;21.630;2024-03-29T15:33:55;99716.47;;;19.28;49.45
77939;BME280;67136;47.546;21.630;2024-03-29T15:36:56;99719.41;;;19.40;49.33
77939;BME280;67136;47.546;21.630;2024-03-29T15:39:58;99717.94;;;19.37;49.50
77939;BME280;67136;47.546;21.630;2024-03-29T15:43:04;99722.81;;;19.34;49.61
77939;BME280;67136;47.546;21.630;2024-03-29T15:46:06;99724.41;;;19.28;49.84
77939;BME280;67136;47.546;21.630;2024-03-29T15:49:10;99722.31;;;19.24;50.14
77939;BME280;67136;47.546;21.630;2024-03-29T15:52:12;99719.47;;;19.25;50.40
77939;BME280;67136;47.546;21.630;2024-03-29T15:55:14;99719.87;;;19.22;50.32
77939;BME280;67136;47.546;21.630;2024-03-29T15:58:16;99719.87;;;19.22;50.47